Time;durP1;ratioP1;P1;durP2;ratioP2;P2;SDS_P1;SDS_P2;PMS_P1;PMS_P2;Temp;Humidity;BMP_temperature;BMP_pressure;BME280_temperature;BME280_humidity;BME280_pressure;Samples;Min_cycle;Max_cycle;Signal;HPM_P1;HPM_P2
2023/08/16 00:00:40;;;;;;;;;;;;;;;25.13;73.23;101348.00;4188010;28;20011;-68
2023/08/16 00:02:42;;;;;;;;;;;;;;;25.13;73.69;101338.88;4186402;28;20019;-68
2023/08/16 00:04:44;;;;;;;;;;;;;;;25.11;73.32;101347.41;4187507;28;20019;-68
2023/08/16 00:06:48;;;;;;;;;;;;;;;25.12;73.49;101345.47;4187361;28;20029;-69
2023/08/16 00:08:53;;;;;;;;;;;;;;;25.11;73.26;101352.09;4187832;28;20023;-68
2023/08/16 00:10:55;;;;;;;;;;;;;;;25.10;73.23;101347.69;4167974;28;20024;-68
2023/08/16 00:12:57;;;;;;;;;;;;;;;25.09;73.49;101362.59;4187823;28;19925;-68
2023/08/16 00:14:59;;;;;;;;;;;;;;;25.07;73.70;101368.38;4186798;28;20521;-68
2023/08/16 00:17:00;;;;;;;;;;;;;;;25.05;72.74;101378.00;4186960;28;20032;-67
2023/08/16 00:19:02;;;;;;;;;;;;;;;25.04;73.45;101376.34;4187148;28;20023;-68
2023/08/16 00:21:04;;;;;;;;;;;;;;;24.97;72.42;101387.63;4187446;28;20426;-68
2023/08/16 00:23:07;;;;;;;;;;;;;;;24.92;72.76;101390.28;4187672;28;20034;-68
2023/08/16 00:25:10;;;;;;;;;;;;;;;24.90;73.61;101393.31;4183405;28;20039;-68
2023/08/16 00:27:11;;;;;;;;;;;;;;;24.89;73.91;101390.81;4187342;28;20019;-68
2023/08/16 00:29:13;;;;;;;;;;;;;;;24.90;74.19;101395.25;4167702;28;20020;-68
2023/08/16 00:31:15;;;;;;;;;;;;;;;24.89;74.04;101397.19;4186560;28;20011;-68
2023/08/16 00:33:16;;;;;;;;;;;;;;;24.89;74.12;101396.34;4168330;28;20315;-68
2023/08/16 00:35:18;;;;;;;;;;;;;;;24.88;74.22;101400.22;4169176;28;19924;-68
2023/08/16 00:37:20;;;;;;;;;;;;;;;24.88;74.31;101401.03;4169371;28;20015;-68
2023/08/16 00:39:23;;;;;;;;;;;;;;;24.88;74.32;101401.03;4186097;28;20020;-68
2023/08/16 00:41:25;;;;;;;;;;;;;;;24.88;74.48;101398.25;4185870;28;20016;-68
2023/08/16 00:43:27;;;;;;;;;;;;;;;24.88;74.16;101389.16;4167002;28;20023;-68
2023/08/16 00:45:29;;;;;;;;;;;;;;;24.88;74.16;101391.91;4186562;28;20024;-68
2023/08/16 00:47:31;;;;;;;;;;;;;;;24.88;73.66;101391.91;4168311;28;20031;-68
2023/08/16 00:49:33;;;;;;;;;;;;;;;24.87;73.70;101384.72;4185819;28;20027;-67
2023/08/16 00:51:35;;;;;;;;;;;;;;;24.85;73.94;101387.72;4168048;28;20411;-68
2023/08/16 00:53:38;;;;;;;;;;;;;;;24.86;74.13;101369.22;4185013;28;20474;-68
2023/08/16 00:55:40;;;;;;;;;;;;;;;24.85;74.13;101368.41;4168299;28;20020;-68
2023/08/16 00:57:42;;;;;;;;;;;;;;;24.84;73.90;101375.00;4186459;28;20470;-68
2023/08/16 00:59:53;;;;;;;;;;;;;;;24.83;73.76;101370.59;4186583;28;20015;-68
2023/08/16 01:12:51;;;;;;;;;;;;;;;;;;;;;
2023/08/16 01:18:01;;;;;;;;;;;;;;;24.76;74.38;101367.16;4079508;23;19931;-68
2023/08/16 01:20:04;;;;;;;;;;;;;;;24.75;74.13;101368.25;4048834;29;19935;-68
2023/08/16 01:22:08;;;;;;;;;;;;;;;24.73;74.42;101364.91;4058743;29;19974;-68
2023/08/16 01:24:14;;;;;;;;;;;;;;;24.72;74.25;101366.84;4049105;29;20018;-68
2023/08/16 01:26:26;;;;;;;;;;;;;;;24.72;74.50;101363.25;4042693;29;20098;-73
2023/08/16 01:28:28;;;;;;;;;;;;;;;24.72;74.53;101374.28;4058711;29;20424;-68
2023/08/16 01:30:30;;;;;;;;;;;;;;;24.71;74.58;101369.88;4058651;29;20375;-68
2023/08/16 01:32:32;;;;;;;;;;;;;;;24.70;74.88;101359.91;4041918;29;20022;-68
2023/08/16 01:34:34;;;;;;;;;;;;;;;24.70;74.88;101365.44;4058406;29;20018;-68
2023/08/16 01:36:36;;;;;;;;;;;;;;;24.68;74.21;101364.88;4058391;29;20366;-67
2023/08/16 01:38:37;;;;;;;;;;;;;;;24.67;74.51;101366.81;4042007;29;20458;-68
2023/08/16 01:40:41;;;;;;;;;;;;;;;24.67;74.48;101357.66;4041578;29;20470;-69
2023/08/16 01:42:44;;;;;;;;;;;;;;;24.67;74.81;101357.66;4037206;29;20034;-68
2023/08/16 01:44:46;;;;;;;;;;;;;;;24.66;74.42;101364.28;4061247;29;20021;-68
2023/08/16 01:46:48;;;;;;;;;;;;;;;24.66;75.01;101375.34;4061539;29;20373;-68
2023/08/16 01:48:50;;;;;;;;;;;;;;;24.64;74.66;101368.13;4061082;29;20027;-68
2023/08/16 01:50:52;;;;;;;;;;;;;;;24.65;75.28;101374.50;4045387;29;20022;-67
2023/08/16 01:52:57;;;;;;;;;;;;;;;24.63;75.28;101369.22;4059589;29;19927;-67
2023/08/16 01:54:59;;;;;;;;;;;;;;;24.63;75.10;101380.25;4045187;29;20054;-68
2023/08/16 01:57:02;;;;;;;;;;;;;;;24.63;75.36;101371.16;4066966;29;20031;-67
2023/08/16 01:59:05;;;;;;;;;;;;;;;24.63;75.45;101376.69;4061074;29;20030;-67
2023/08/16 02:01:07;;;;;;;;;;;;;;;24.63;75.02;101379.44;4044630;29;20322;-67
2023/08/16 02:03:09;;;;;;;;;;;;;;;24.61;75.37;101379.69;4061131;29;20031;-67
2023/08/16 02:05:11;;;;;;;;;;;;;;;24.61;75.43;101374.19;4060892;29;20458;-68
2023/08/16 02:07:13;;;;;;;;;;;;;;;24.60;75.68;101375.25;4061204;29;20433;-67
2023/08/16 02:09:15;;;;;;;;;;;;;;;24.60;75.41;101380.78;4066621;29;20553;-67
2023/08/16 02:11:17;;;;;;;;;;;;;;;24.60;75.35;101386.31;4043814;29;20537;-67
2023/08/16 02:13:19;;;;;;;;;;;;;;;24.59;75.51;101378.28;4061014;29;20385;-68
2023/08/16 02:15:23;;;;;;;;;;;;;;;24.49;76.10;101370.66;4060811;29;20025;-67
2023/08/16 02:17:25;;;;;;;;;;;;;;;24.57;76.05;101374.94;4044537;29;20015;-67
2023/08/16 02:19:26;;;;;;;;;;;;;;;24.57;76.05;101372.19;4043855;29;20035;-68
2023/08/16 02:21:29;;;;;;;;;;;;;;;24.57;75.86;101373.00;4044126;29;19934;-68
2023/08/16 02:23:31;;;;;;;;;;;;;;;24.57;76.22;101369.41;4044560;29;20018;-68
2023/08/16 02:25:33;;;;;;;;;;;;;;;24.57;76.20;101373.00;4045243;29;20019;-69
2023/08/16 02:27:36;;;;;;;;;;;;;;;24.56;75.88;101379.59;4045173;29;20441;-69
2023/08/16 02:29:38;;;;;;;;;;;;;;;24.56;75.98;101382.38;4045171;29;20577;-67
2023/08/16 02:31:42;;;;;;;;;;;;;;;24.55;76.08;101380.69;4045522;29;20467;-68
2023/08/16 02:33:44;;;;;;;;;;;;;;;24.55;76.51;101379.88;4050830;29;20014;-69
2023/08/16 02:35:46;;;;;;;;;;;;;;;24.54;76.52;101378.19;4045658;29;20022;-69
2023/08/16 02:37:48;;;;;;;;;;;;;;;24.53;76.29;101376.50;4044153;29;20703;-68
2023/08/16 02:39:50;;;;;;;;;;;;;;;24.51;76.67;101362.94;4045092;29;20102;-69
2023/08/16 02:41:54;;;;;;;;;;;;;;;24.52;77.02;101363.81;4051242;29;20018;-67
2023/08/16 02:43:55;;;;;;;;;;;;;;;24.51;77.00;101371.22;4050980;29;20794;-67
2023/08/16 02:45:57;;;;;;;;;;;;;;;24.51;76.94;101364.88;4045461;29;20014;-68
2023/08/16 02:48:00;;;;;;;;;;;;;;;24.50;76.54;101357.69;4045332;29;20030;-68
2023/08/16 02:50:04;;;;;;;;;;;;;;;24.49;77.09;101367.91;4044106;29;20024;-68
2023/08/16 02:52:06;;;;;;;;;;;;;;;24.47;76.82;101367.31;4044374;29;20030;-68
2023/08/16 02:54:08;;;;;;;;;;;;;;;24.46;77.44;101362.88;4050578;29;20026;-67
2023/08/16 02:56:10;;;;;;;;;;;;;;;24.46;77.48;101371.16;4059563;29;20358;-67
2023/08/16 02:58:12;;;;;;;;;;;;;;;24.44;77.50;101374.19;4045397;29;20032;-67
2023/08/16 03:00:14;;;;;;;;;;;;;;;24.44;77.51;101379.72;4045122;29;20018;-67
2023/08/16 03:02:16;;;;;;;;;;;;;;;24.44;77.13;101382.47;4044788;29;19932;-68
2023/08/16 03:04:20;;;;;;;;;;;;;;;24.43;77.25;101375.25;4044428;29;20071;-68
2023/08/16 03:06:22;;;;;;;;;;;;;;;24.42;77.50;101381.03;4044661;29;20026;-67
2023/08/16 03:08:25;;;;;;;;;;;;;;;24.41;77.67;101379.38;4044695;29;20031;-67
2023/08/16 03:10:26;;;;;;;;;;;;;;;24.40;77.56;101381.28;4044642;29;20023;-68
2023/08/16 03:12:28;;;;;;;;;;;;;;;24.39;77.69;101385.16;4044592;29;20299;-67
2023/08/16 03:14:30;;;;;;;;;;;;;;;24.38;77.79;101390.94;4044798;29;20026;-67
2023/08/16 03:16:32;;;;;;;;;;;;;;;24.36;78.12;101382.09;4035118;29;20466;-67
2023/08/16 03:18:34;;;;;;;;;;;;;;;24.34;77.82;101387.00;4044948;29;20023;-69
2023/08/16 03:20:38;;;;;;;;;;;;;;;24.33;78.18;101388.94;4043752;29;20469;-68
2023/08/16 03:22:40;;;;;;;;;;;;;;;24.33;78.18;101391.69;4044764;29;19928;-68
2023/08/16 03:24:42;;;;;;;;;;;;;;;24.33;78.55;101391.69;4044139;29;20027;-68
2023/08/16 03:26:44;;;;;;;;;;;;;;;24.35;78.53;101402.50;4050375;29;20628;-67
2023/08/16 03:28:46;;;;;;;;;;;;;;;24.34;78.65;101398.03;4044304;29;20018;-69
2023/08/16 03:30:48;;;;;;;;;;;;;;;24.33;78.51;101397.22;4043242;29;20034;-67
2023/08/16 03:32:50;;;;;;;;;;;;;;;24.34;78.75;101395.28;4043423;29;20014;-69
2023/08/16 03:34:56;;;;;;;;;;;;;;;24.34;78.33;101396.16;4043391;29;20034;-67
2023/08/16 03:37:00;;;;;;;;;;;;;;;24.34;78.72;101404.41;4043234;29;20011;-67
2023/08/16 03:39:05;;;;;;;;;;;;;;;24.33;78.27;101405.50;4050333;29;20040;-67
2023/08/16 03:41:07;;;;;;;;;;;;;;;24.33;78.42;101411.03;4065092;29;20503;-67
2023/08/16 03:43:09;;;;;;;;;;;;;;;24.34;78.36;101406.31;4044951;29;20494;-67
2023/08/16 03:45:11;;;;;;;;;;;;;;;24.33;78.47;101413.78;4042434;29;20019;-67
2023/08/16 03:47:14;;;;;;;;;;;;;;;24.33;78.46;101411.03;4043809;29;20026;-67
2023/08/16 03:49:16;;;;;;;;;;;;;;;24.33;78.51;101408.25;4044364;29;20462;-68
2023/08/16 03:51:18;;;;;;;;;;;;;;;24.34;78.94;101409.09;4042860;29;20126;-67
2023/08/16 03:53:22;;;;;;;;;;;;;;;24.33;78.49;101412.97;4043767;29;20030;-67
2023/08/16 03:55:25;;;;;;;;;;;;;;;24.33;78.70;101405.50;4050347;29;20457;-67
2023/08/16 03:57:27;;;;;;;;;;;;;;;24.33;78.37;101412.97;4044117;29;20459;-67
2023/08/16 03:59:31;;;;;;;;;;;;;;;24.32;78.56;101417.63;4041191;29;20364;-67
2023/08/16 04:01:33;;;;;;;;;;;;;;;24.33;78.48;101415.72;4048552;29;20029;-68
2023/08/16 04:03:35;;;;;;;;;;;;;;;24.32;78.88;101420.38;4034112;29;20411;-67
2023/08/16 04:05:37;;;;;;;;;;;;;;;24.31;78.84;101429.78;4043284;29;20416;-67
2023/08/16 04:07:38;;;;;;;;;;;;;;;24.31;78.84;101421.50;4042255;29;20014;-68
2023/08/16 04:09:42;;;;;;;;;;;;;;;24.30;78.75;101425.31;4044209;29;20022;-68
2023/08/16 04:11:44;;;;;;;;;;;;;;;24.30;78.60;101417.03;4044192;29;20027;-68
2023/08/16 04:13:46;;;;;;;;;;;;;;;24.29;78.71;101426.41;4044420;29;20121;-68
2023/08/16 04:15:48;;;;;;;;;;;;;;;24.28;78.98;101422.81;4043502;29;20033;-68
2023/08/16 04:17:51;;;;;;;;;;;;;;;24.28;78.61;101428.34;4042509;29;20430;-68
2023/08/16 04:19:53;;;;;;;;;;;;;;;24.27;78.67;101429.41;4043744;29;20027;-67
2023/08/16 04:21:58;;;;;;;;;;;;;;;24.27;78.63;101423.91;4044237;29;20042;-67
2023/08/16 04:24:00;;;;;;;;;;;;;;;24.27;78.88;101434.13;4043636;29;19973;-67
2023/08/16 04:26:03;;;;;;;;;;;;;;;24.27;79.17;101434.13;4042163;29;20022;-67
2023/08/16 04:28:08;;;;;;;;;;;;;;;24.26;78.79;101454.50;4049092;29;20022;-67
2023/08/16 04:30:11;;;;;;;;;;;;;;;24.26;79.32;101449.00;4048133;29;20026;-68
2023/08/16 04:32:14;;;;;;;;;;;;;;;24.25;78.80;101447.34;4041803;29;20018;-68
2023/08/16 04:34:16;;;;;;;;;;;;;;;24.23;78.79;101453.09;4044071;29;20373;-68
2023/08/16 04:36:17;;;;;;;;;;;;;;;24.22;79.40;101445.09;4042433;29;20030;-68
2023/08/16 04:38:20;;;;;;;;;;;;;;;24.22;79.53;101456.94;4043642;29;20054;-67
2023/08/16 04:40:22;;;;;;;;;;;;;;;24.22;79.75;101456.13;4042153;29;20033;-68
2023/08/16 04:42:25;;;;;;;;;;;;;;;24.22;79.65;101462.47;4042981;29;20017;-67
2023/08/16 04:44:27;;;;;;;;;;;;;;;24.22;79.17;101459.72;4048126;29;19936;-68
2023/08/16 04:46:30;;;;;;;;;;;;;;;24.22;79.56;101453.34;4043123;29;20026;-67
2023/08/16 04:48:34;;;;;;;;;;;;;;;24.22;79.45;101461.63;4049094;29;20037;-67
2023/08/16 04:50:36;;;;;;;;;;;;;;;24.19;79.25;101460.22;4057189;29;20100;-69
2023/08/16 04:52:39;;;;;;;;;;;;;;;24.19;79.53;101457.44;4063308;29;20441;-68
2023/08/16 04:54:41;;;;;;;;;;;;;;;24.19;79.60;101460.22;4042123;29;20014;-68
2023/08/16 04:56:43;;;;;;;;;;;;;;;24.18;79.55;101457.69;4049534;29;20022;-69
2023/08/16 04:58:47;;;;;;;;;;;;;;;24.18;79.59;101461.28;4041867;29;20038;-68
2023/08/16 05:00:49;;;;;;;;;;;;;;;24.17;79.56;101459.63;4041796;29;20034;-68
2023/08/16 05:02:51;;;;;;;;;;;;;;;24.16;79.53;101460.72;4042159;29;20026;-69
2023/08/16 05:04:55;;;;;;;;;;;;;;;24.17;79.61;101461.53;4041851;29;20422;-68
2023/08/16 05:06:57;;;;;;;;;;;;;;;24.17;79.10;101464.28;4062901;29;20055;-69
2023/08/16 05:09:00;;;;;;;;;;;;;;;24.17;79.25;101467.06;4048288;29;20023;-69
2023/08/16 05:11:02;;;;;;;;;;;;;;;24.17;79.31;101470.66;4041716;29;20022;-70
2023/08/16 05:13:04;;;;;;;;;;;;;;;24.17;79.42;101473.44;4048397;29;20039;-70
2023/08/16 05:15:09;;;;;;;;;;;;;;;24.18;79.06;101480.59;4043253;29;20026;-69
2023/08/16 05:17:11;;;;;;;;;;;;;;;24.18;79.12;101480.59;4042994;29;20469;-69
2023/08/16 05:19:14;;;;;;;;;;;;;;;24.18;79.42;101477.00;4052229;29;20025;-69
2023/08/16 05:21:16;;;;;;;;;;;;;;;24.18;79.21;101474.25;4039876;29;20038;-69
2023/08/16 05:23:18;;;;;;;;;;;;;;;24.18;79.02;101475.09;4046896;29;20376;-68
2023/08/16 05:25:20;;;;;;;;;;;;;;;24.19;79.06;101475.94;4046186;29;19932;-68
2023/08/16 05:27:22;;;;;;;;;;;;;;;24.19;79.05;101478.69;4046040;29;20052;-68
2023/08/16 05:29:24;;;;;;;;;;;;;;;24.20;79.17;101486.72;4046217;29;20030;-68
2023/08/16 05:31:28;;;;;;;;;;;;;;;24.22;79.25;101483.72;4046437;29;20110;-69
2023/08/16 05:33:30;;;;;;;;;;;;;;;24.23;79.09;101485.38;4046271;29;20019;-69
2023/08/16 05:35:33;;;;;;;;;;;;;;;24.23;79.06;101493.66;4033547;29;20015;-68
2023/08/16 05:37:35;;;;;;;;;;;;;;;24.24;79.11;101495.34;4046063;29;20022;-69
2023/08/16 05:39:36;;;;;;;;;;;;;;;24.24;78.43;101500.84;4045942;29;19958;-69
2023/08/16 05:41:38;;;;;;;;;;;;;;;24.25;78.82;101488.75;4045090;29;19991;-69
2023/08/16 05:43:40;;;;;;;;;;;;;;;24.24;78.96;101485.13;4045052;29;20030;-68
2023/08/16 05:45:42;;;;;;;;;;;;;;;24.26;78.57;101488.50;4046625;29;20430;-69
2023/08/16 05:47:45;;;;;;;;;;;;;;;24.28;78.61;101502.88;4046658;29;20022;-68
2023/08/16 05:49:47;;;;;;;;;;;;;;;24.28;78.38;101496.53;4045947;29;20120;-68
2023/08/16 05:51:53;;;;;;;;;;;;;;;24.28;78.26;101502.03;4045455;29;20018;-68
2023/08/16 05:53:57;;;;;;;;;;;;;;;24.29;78.08;101510.06;4045944;29;20014;-68
2023/08/16 05:55:59;;;;;;;;;;;;;;;24.30;78.00;101499.84;4045588;29;20370;-68
2023/08/16 05:58:01;;;;;;;;;;;;;;;24.28;78.33;101499.28;4046162;29;20024;-68
2023/08/16 06:00:04;;;;;;;;;;;;;;;24.31;77.77;101509.81;4045786;29;20018;-69
2023/08/16 06:02:14;;;;;;;;;;;;;;;24.32;77.70;101503.19;4046052;29;20026;-69
2023/08/16 06:04:17;;;;;;;;;;;;;;;24.33;77.57;101501.28;4052127;29;20501;-68
2023/08/16 06:06:19;;;;;;;;;;;;;;;24.34;77.96;101505.69;4045628;29;19963;-68
2023/08/16 06:08:21;;;;;;;;;;;;;;;24.34;77.75;101503.81;4045505;29;20084;-68
2023/08/16 06:10:22;;;;;;;;;;;;;;;24.36;76.96;101509.06;4045920;29;20030;-69
2023/08/16 06:12:24;;;;;;;;;;;;;;;24.35;76.93;101510.97;4045759;29;20023;-68
2023/08/16 06:14:31;;;;;;;;;;;;;;;24.37;77.53;101517.06;4045331;29;20022;-68
2023/08/16 06:16:33;;;;;;;;;;;;;;;24.38;77.23;101523.44;4046970;29;20018;-68
2023/08/16 06:18:35;;;;;;;;;;;;;;;24.37;77.13;101511.53;4059936;29;20022;-68
2023/08/16 06:20:38;;;;;;;;;;;;;;;24.38;76.66;101512.41;4060087;29;20043;-69
2023/08/16 06:22:40;;;;;;;;;;;;;;;24.39;76.68;101523.19;4060937;29;20026;-68
2023/08/16 06:24:42;;;;;;;;;;;;;;;24.41;76.48;101531.22;4060658;29;20019;-68
2023/08/16 06:26:43;;;;;;;;;;;;;;;24.41;76.19;101534.81;4060821;29;19959;-68
2023/08/16 06:28:46;;;;;;;;;;;;;;;24.42;76.79;101530.13;4060221;29;19927;-68
2023/08/16 06:30:48;;;;;;;;;;;;;;;24.41;76.22;101534.00;4060826;29;20029;-68
2023/08/16 06:32:50;;;;;;;;;;;;;;;24.42;76.39;101535.66;4061288;29;20366;-68
2023/08/16 06:34:52;;;;;;;;;;;;;;;24.43;76.47;101540.09;4061360;29;20034;-68
2023/08/16 06:36:55;;;;;;;;;;;;;;;24.44;76.30;101544.53;4060900;29;20026;-68
2023/08/16 06:38:58;;;;;;;;;;;;;;;24.43;76.24;101538.16;4043783;29;20434;-69
2023/08/16 06:40:59;;;;;;;;;;;;;;;24.46;76.67;101547.88;4058138;29;20023;-68
2023/08/16 06:43:02;;;;;;;;;;;;;;;24.46;76.50;101543.19;4057219;29;20034;-69
2023/08/16 06:45:04;;;;;;;;;;;;;;;24.49;76.24;101541.03;4058688;29;20022;-68
2023/08/16 06:47:06;;;;;;;;;;;;;;;24.50;76.12;101538.00;4041716;29;20334;-67
2023/08/16 06:49:08;;;;;;;;;;;;;;;24.49;75.68;101549.31;4060537;29;20024;-69
2023/08/16 06:51:10;;;;;;;;;;;;;;;24.51;75.66;101553.47;4059996;29;20059;-70
2023/08/16 06:53:14;;;;;;;;;;;;;;;24.53;76.47;101550.47;4060471;29;20370;-70
2023/08/16 06:55:16;;;;;;;;;;;;;;;24.54;76.27;101546.63;4060572;29;20022;-69
2023/08/16 06:57:18;;;;;;;;;;;;;;;24.57;76.14;101548.91;4060334;29;20022;-69
2023/08/16 06:59:20;;;;;;;;;;;;;;;24.59;76.18;101543.97;4060079;29;20019;-69
2023/08/16 07:01:23;;;;;;;;;;;;;;;24.60;75.85;101554.75;4059936;29;20022;-68
2023/08/16 07:03:28;;;;;;;;;;;;;;;24.62;76.23;101551.75;4060218;29;20029;-69
2023/08/16 07:05:30;;;;;;;;;;;;;;;24.64;75.72;101555.13;4059955;29;20470;-69
2023/08/16 07:07:32;;;;;;;;;;;;;;;24.66;75.70;101543.81;4060111;29;21011;-69
2023/08/16 07:09:35;;;;;;;;;;;;;;;24.68;76.02;101556.25;4059972;29;20022;-70
2023/08/16 07:11:39;;;;;;;;;;;;;;;24.69;75.76;101552.44;4059370;29;20030;-69
2023/08/16 07:13:41;;;;;;;;;;;;;;;24.70;75.20;101550.50;4059987;29;20034;-69
2023/08/16 07:15:43;;;;;;;;;;;;;;;24.72;75.26;101538.09;4060525;29;20057;-68
2023/08/16 07:17:45;;;;;;;;;;;;;;;24.74;75.26;101548.91;4060339;29;20652;-69
2023/08/16 07:19:49;;;;;;;;;;;;;;;24.78;75.55;101556.44;4060063;29;20042;-69
2023/08/16 07:21:50;;;;;;;;;;;;;;;24.80;75.57;101554.25;4060297;29;20025;-69
2023/08/16 07:23:52;;;;;;;;;;;;;;;24.84;75.99;101557.34;4060153;29;19931;-69
2023/08/16 07:25:57;;;;;;;;;;;;;;;24.86;75.34;101549.66;4060000;29;20354;-68
2023/08/16 07:27:59;;;;;;;;;;;;;;;24.89;75.37;101557.44;4060080;29;19983;-69
2023/08/16 07:30:01;;;;;;;;;;;;;;;24.91;75.55;101558.00;4059806;29;20319;-69
2023/08/16 07:32:03;;;;;;;;;;;;;;;24.93;75.49;101542.00;4059639;29;20018;-69
2023/08/16 07:34:05;;;;;;;;;;;;;;;24.95;75.07;101545.38;4059518;29;20343;-70
2023/08/16 07:36:08;;;;;;;;;;;;;;;24.97;74.99;101550.63;4059648;29;20015;-70
2023/08/16 07:38:10;;;;;;;;;;;;;;;24.98;75.20;101553.16;4059932;29;20173;-69
2023/08/16 07:40:12;;;;;;;;;;;;;;;25.01;74.69;101557.31;4059044;29;20816;-69
2023/08/16 07:42:19;;;;;;;;;;;;;;;25.02;74.44;101550.69;4060136;29;20374;-69
2023/08/16 07:44:21;;;;;;;;;;;;;;;25.05;74.89;101560.41;4057935;29;20458;-69
2023/08/16 07:46:23;;;;;;;;;;;;;;;25.06;74.42;101560.13;4059687;29;20029;-68
2023/08/16 07:48:25;;;;;;;;;;;;;;;25.08;74.31;101568.19;4059848;29;20017;-68
2023/08/16 07:50:27;;;;;;;;;;;;;;;25.10;74.37;101568.78;4059594;29;20256;-69
2023/08/16 07:52:29;;;;;;;;;;;;;;;25.11;74.39;101576.81;4059098;29;20026;-68
2023/08/16 07:54:31;;;;;;;;;;;;;;;25.13;74.15;101569.09;4059587;29;20022;-69
2023/08/16 07:56:33;;;;;;;;;;;;;;;25.14;73.81;101568.03;4059691;29;20050;-68
2023/08/16 07:58:36;;;;;;;;;;;;;;;25.16;74.06;101573.28;4059271;29;20023;-69
2023/08/16 08:00:38;;;;;;;;;;;;;;;25.17;73.41;101574.94;4059504;29;20403;-68
2023/08/16 08:02:40;;;;;;;;;;;;;;;25.18;73.26;101574.69;4059655;29;20046;-69
2023/08/16 08:04:43;;;;;;;;;;;;;;;25.21;73.74;101575.28;4059632;29;20062;-70
2023/08/16 08:06:45;;;;;;;;;;;;;;;25.23;73.61;101573.94;4059156;29;20829;-68
2023/08/16 08:08:47;;;;;;;;;;;;;;;25.24;73.52;101581.13;4059679;29;19931;-69
2023/08/16 08:10:49;;;;;;;;;;;;;;;25.26;72.88;101578.94;4059154;29;20014;-69
2023/08/16 08:12:51;;;;;;;;;;;;;;;25.28;73.09;101582.34;4059458;29;20075;-69
2023/08/16 08:14:58;;;;;;;;;;;;;;;25.30;72.58;101577.38;4059670;29;20098;-69
2023/08/16 08:17:00;;;;;;;;;;;;;;;25.32;72.56;101579.91;4058730;29;20453;-69
2023/08/16 08:19:03;;;;;;;;;;;;;;;25.35;72.94;101582.16;4058911;29;20029;-69
2023/08/16 08:21:05;;;;;;;;;;;;;;;25.39;72.39;101586.06;4059046;29;20034;-69
2023/08/16 08:23:07;;;;;;;;;;;;;;;25.41;72.29;101592.19;4059512;29;20592;-69
2023/08/16 08:25:09;;;;;;;;;;;;;;;25.44;72.70;101579.75;4059317;29;20015;-68
2023/08/16 08:27:12;;;;;;;;;;;;;;;25.47;72.49;101584.78;4058510;29;20022;-68
2023/08/16 08:29:13;;;;;;;;;;;;;;;25.50;72.68;101593.41;4059038;29;19931;-68
2023/08/16 08:31:17;;;;;;;;;;;;;;;25.51;72.32;101581.25;4058645;29;20034;-68
2023/08/16 08:33:19;;;;;;;;;;;;;;;25.54;72.07;101596.50;4058845;29;20026;-68
2023/08/16 08:35:21;;;;;;;;;;;;;;;25.57;71.15;101589.63;4059026;29;20017;-68
2023/08/16 08:37:23;;;;;;;;;;;;;;;25.58;70.96;101596.81;4058694;29;20034;-69
2023/08/16 08:39:28;;;;;;;;;;;;;;;25.59;71.57;101595.72;4042319;29;20454;-69
2023/08/16 08:41:32;;;;;;;;;;;;;;;25.60;71.59;101598.22;4059003;29;20105;-68
2023/08/16 08:43:35;;;;;;;;;;;;;;;25.60;71.09;101589.94;4058825;29;20046;-69
2023/08/16 08:45:37;;;;;;;;;;;;;;;25.61;71.27;101599.06;4058740;29;20026;-69
2023/08/16 08:47:40;;;;;;;;;;;;;;;25.62;71.68;101598.81;4058525;29;20026;-69
2023/08/16 08:49:41;;;;;;;;;;;;;;;25.64;71.14;101601.31;4058140;29;19928;-68
2023/08/16 08:51:43;;;;;;;;;;;;;;;25.64;71.69;101604.06;4058968;29;19942;-68
2023/08/16 08:53:45;;;;;;;;;;;;;;;25.66;71.21;101610.22;4058682;29;20034;-68
2023/08/16 08:55:47;;;;;;;;;;;;;;;25.67;71.58;101606.31;4059095;29;20423;-67
2023/08/16 08:57:50;;;;;;;;;;;;;;;25.68;71.13;101608.00;4058564;29;20571;-68
2023/08/16 08:59:53;;;;;;;;;;;;;;;25.70;71.48;101614.94;4058650;29;20046;-68
2023/08/16 09:01:55;;;;;;;;;;;;;;;25.72;71.06;101606.38;4058742;29;20026;-68
2023/08/16 09:04:00;;;;;;;;;;;;;;;25.73;71.07;101606.13;4058772;29;20011;-69
2023/08/16 09:06:03;;;;;;;;;;;;;;;25.73;71.36;101610.84;4058111;29;20369;-69
2023/08/16 09:08:06;;;;;;;;;;;;;;;25.75;70.61;101607.81;4058564;29;20035;-69
2023/08/16 09:10:09;;;;;;;;;;;;;;;25.75;70.81;101605.88;4041785;29;20414;-69
2023/08/16 09:12:12;;;;;;;;;;;;;;;25.77;70.73;101605.63;4058811;29;20010;-67
2023/08/16 09:14:14;;;;;;;;;;;;;;;25.78;70.55;101608.13;4041827;29;20031;-68
2023/08/16 09:16:16;;;;;;;;;;;;;;;25.79;70.65;101609.81;4058410;29;20026;-70
2023/08/16 09:18:19;;;;;;;;;;;;;;;25.81;70.88;101606.78;4058472;29;20018;-69
2023/08/16 09:20:22;;;;;;;;;;;;;;;25.83;70.59;101612.88;4058782;29;20014;-68
2023/08/16 09:22:35;;;;;;;;;;;;;;;25.84;70.59;101609.84;4058577;29;20350;-68
2023/08/16 09:24:37;;;;;;;;;;;;;;;25.86;70.54;101606.81;4058966;29;20054;-69
2023/08/16 09:26:40;;;;;;;;;;;;;;;25.87;70.38;101609.34;4057964;29;19958;-69
2023/08/16 09:28:42;;;;;;;;;;;;;;;25.90;70.31;101616.28;4058222;29;20366;-69
2023/08/16 09:30:44;;;;;;;;;;;;;;;25.93;70.36;101614.94;4058528;29;19931;-70
2023/08/16 09:32:47;;;;;;;;;;;;;;;25.94;70.21;101613.84;4058551;29;20018;-69
2023/08/16 09:34:49;;;;;;;;;;;;;;;25.96;70.57;101608.91;4058701;29;20046;-69
2023/08/16 09:36:53;;;;;;;;;;;;;;;25.98;70.34;101609.50;4058144;29;20018;-68
2023/08/16 09:38:59;;;;;;;;;;;;;;;25.99;70.32;101602.88;4058761;29;20057;-68
2023/08/16 09:41:01;;;;;;;;;;;;;;;26.00;69.97;101605.38;4058677;29;20023;-68
2023/08/16 09:43:03;;;;;;;;;;;;;;;26.01;69.73;101601.50;4058386;29;20031;-69
2023/08/16 09:45:06;;;;;;;;;;;;;;;26.04;69.86;101606.53;4058698;29;20011;-68
2023/08/16 09:47:12;;;;;;;;;;;;;;;26.05;70.05;101604.56;4042097;29;20022;-69
2023/08/16 09:49:14;;;;;;;;;;;;;;;26.05;70.08;101608.19;4058695;29;20038;-69
2023/08/16 09:51:16;;;;;;;;;;;;;;;26.06;69.57;101607.09;4058081;29;19927;-68
2023/08/16 09:53:20;;;;;;;;;;;;;;;26.07;69.90;101602.41;4041727;29;20026;-69
2023/08/16 09:55:29;;;;;;;;;;;;;;;26.07;69.94;101597.69;4058371;29;20011;-69
2023/08/16 09:57:34;;;;;;;;;;;;;;;26.08;69.94;101602.16;4058598;29;20042;-70
2023/08/16 09:59:36;;;;;;;;;;;;;;;26.10;69.40;101589.97;4057485;29;20023;-69
2023/08/16 10:01:41;;;;;;;;;;;;;;;26.10;69.41;101596.34;4058267;29;20387;-69
2023/08/16 10:03:44;;;;;;;;;;;;;;;26.12;69.67;101590.56;4057473;29;20406;-70
2023/08/16 10:05:48;;;;;;;;;;;;;;;26.12;69.50;101580.31;4060225;29;20013;-69
2023/08/16 10:07:50;;;;;;;;;;;;;;;26.13;69.37;101586.66;4061530;29;20670;-68
2023/08/16 10:09:53;;;;;;;;;;;;;;;26.14;69.75;101591.13;4061177;29;20137;-68
2023/08/16 10:11:55;;;;;;;;;;;;;;;26.16;69.59;101595.31;4060902;29;19960;-69
2023/08/16 10:13:57;;;;;;;;;;;;;;;26.16;69.67;101592.53;4060941;29;20022;-69
2023/08/16 10:16:02;;;;;;;;;;;;;;;26.17;69.22;101585.06;4060807;29;20094;-70
2023/08/16 10:18:04;;;;;;;;;;;;;;;26.15;69.48;101577.00;4060640;29;20026;-68
2023/08/16 10:20:16;;;;;;;;;;;;;;;26.18;69.21;101578.44;4060512;29;19998;-68
2023/08/16 10:22:19;;;;;;;;;;;;;;;26.19;69.00;101577.31;4051586;29;20754;-69
2023/08/16 10:24:21;;;;;;;;;;;;;;;26.20;69.48;101579.81;4061189;29;20026;-69
2023/08/16 10:26:26;;;;;;;;;;;;;;;26.20;69.09;101574.28;4061085;29;20095;-69
2023/08/16 10:28:28;;;;;;;;;;;;;;;26.22;68.90;101579.56;4060928;29;20022;-70
2023/08/16 10:30:31;;;;;;;;;;;;;;;26.22;69.20;101577.66;4060704;29;20014;-69
2023/08/16 10:32:35;;;;;;;;;;;;;;;26.24;68.87;101582.94;4060901;29;19931;-69
2023/08/16 10:34:37;;;;;;;;;;;;;;;26.23;68.92;101571.00;4060581;29;20018;-68
2023/08/16 10:36:39;;;;;;;;;;;;;;;26.25;68.70;101574.34;4060457;29;20022;-68
2023/08/16 10:38:41;;;;;;;;;;;;;;;26.26;68.95;101578.78;4060722;29;19990;-67
2023/08/16 10:40:43;;;;;;;;;;;;;;;26.28;68.77;101572.16;4061031;29;20458;-68
2023/08/16 10:42:56;;;;;;;;;;;;;;;26.30;68.61;101575.47;4060633;29;20030;-68
2023/08/16 10:44:58;;;;;;;;;;;;;;;26.31;68.60;101575.22;4060905;29;20355;-70